Decoded Metar for KELM (ELMIRA in NY, USA) (IATA:ELM) | Meteo·Mobile Aviation Weather
aviador You're here:

KELM Decoded Metar

ELMIRA in NY, USA
Report Time2019-10-18 12:53:00
UTC Time2019-10-18 13:35:40
Flight Rules mvfr MVFR
Wind310° at 10 kt
W.Decomp.*RWY 28: 7.4 kt HW 6.7 kt RCW
RWY 24: 1.4 kt HW 9.9 kt RCW
RWY 05: 0.3 kt HW 10 kt LCW
Visibility9999 m
Phenomena:N/A
Clouds:Overcast 029 Hf
Expected CloudBase > 2,000 ft AGL from Temp-Dew spread
Ceiling2,900 ft
Temp08°C (ISA -5)
Dew Point03°C (71% RH)
AAT2.9°C
QNH1013 hPa
Density Alt495 ft
Elevation991 ft
Report Wrong Elevation
Raw Report
KELM 181253Z 31010KT 10SM OVC029 08/03 A2992 RMK AO2 SLP136
T00780028=

Extra information for KELM:More info

Metar Taf Metar & Taf Last 4 Metars F.Rules Stats Wind Profile Meteogram Temp Stats Airport Information Weather charts Add Link Nearby VenuesMetar ALERT Operation Metar Decoded Social comments

AIRNAV info for KELM